createdAt,value
2023-03-13T00:00:06.434Z,20.50
2023-03-13T00:05:09.132Z,13.40
2023-03-13T00:10:15.424Z,13.40
2023-03-13T00:15:20.375Z,22.80
2023-03-13T00:20:22.542Z,14.40
2023-03-13T00:25:24.333Z,10.10
2023-03-13T00:30:26.230Z,12.20
2023-03-13T00:35:29.190Z,10.40
2023-03-13T00:40:34.604Z,13.30
2023-03-13T00:45:37.013Z,11.30
2023-03-13T00:50:42.181Z,9.50
2023-03-13T00:56:01.547Z,11.40
2023-03-13T01:01:12.236Z,8.90
2023-03-13T01:06:17.505Z,5.30
2023-03-13T01:11:22.082Z,10.50
2023-03-13T01:16:25.001Z,9.80
2023-03-13T01:21:29.446Z,12.10
2023-03-13T01:26:31.295Z,10.00
2023-03-13T01:31:35.115Z,12.00
2023-03-13T01:36:38.179Z,7.60
2023-03-13T01:41:40.173Z,7.40
2023-03-13T01:46:42.225Z,9.40
2023-03-13T01:51:53.858Z,6.90
2023-03-13T01:57:13.136Z,7.70
2023-03-13T02:02:21.222Z,8.80
2023-03-13T02:07:49.458Z,9.30
2023-03-13T02:12:52.201Z,8.30
2023-03-13T02:17:55.058Z,7.80
2023-03-13T02:23:46.934Z,8.30
2023-03-13T02:33:51.921Z,7.40
2023-03-13T02:39:02.703Z,6.90
2023-03-13T02:44:07.699Z,6.40
2023-03-13T02:49:28.943Z,8.10
2023-03-13T02:54:35.951Z,6.00
2023-03-13T02:59:37.934Z,7.60
2023-03-13T03:04:39.799Z,5.90
2023-03-13T03:09:41.574Z,6.10
2023-03-13T03:14:47.133Z,6.40
2023-03-13T03:19:49.437Z,7.80
2023-03-13T03:24:51.467Z,8.20
2023-03-13T03:29:53.297Z,7.10
2023-03-13T03:34:56.136Z,5.00
2023-03-13T03:39:58.722Z,8.00
2023-03-13T03:45:02.265Z,6.30
2023-03-13T03:50:04.899Z,6.70
2023-03-13T03:55:10.567Z,7.90
2023-03-13T04:00:15.916Z,6.80
2023-03-13T04:05:20.898Z,8.30
2023-03-13T04:10:23.357Z,61.50
2023-03-13T04:15:26.603Z,61.50
2023-03-13T04:20:29.047Z,108.10
2023-03-13T04:25:31.141Z,82.30
2023-03-13T04:30:35.055Z,127.10
2023-03-13T04:35:54.674Z,95.20
2023-03-13T04:41:17.918Z,81.30
2023-03-13T04:46:28.340Z,64.60
2023-03-13T04:51:50.534Z,16.80
2023-03-13T04:57:15.001Z,27.20
2023-03-13T05:06:31.810Z,50.20
2023-03-13T05:11:51.084Z,31.00
2023-03-13T05:17:04.388Z,35.50
2023-03-13T05:22:29.555Z,53.30
2023-03-13T05:27:48.706Z,14.70
2023-03-13T05:33:10.756Z,21.00
2023-03-13T05:38:38.922Z,28.50
2023-03-13T05:43:44.260Z,29.10
2023-03-13T05:49:03.546Z,23.20
2023-03-13T05:54:21.627Z,44.70
2023-03-13T05:59:51.291Z,15.40
2023-03-13T06:05:16.526Z,20.80
2023-03-13T06:10:19.636Z,22.70
2023-03-13T06:15:22.457Z,19.40
2023-03-13T06:20:48.022Z,13.10
2023-03-13T06:25:49.788Z,22.20
2023-03-13T06:30:51.758Z,13.40
2023-03-13T06:35:56.902Z,13.20
2023-03-13T06:40:59.272Z,20.80
2023-03-13T06:46:05.353Z,18.10
2023-03-13T06:51:11.978Z,22.10
2023-03-13T06:56:14.515Z,13.50
2023-03-13T07:01:18.063Z,15.20
2023-03-13T07:06:19.995Z,17.50
2023-03-13T07:11:21.753Z,11.80
2023-03-13T07:16:25.136Z,11.20
2023-03-13T07:21:27.106Z,11.70
2023-03-13T07:26:28.891Z,10.70
2023-03-13T07:31:33.918Z,11.00
2023-03-13T07:36:36.288Z,10.30
2023-03-13T07:41:40.062Z,12.50
2023-03-13T07:46:42.043Z,8.20
2023-03-13T07:51:45.884Z,10.20
2023-03-13T07:56:47.663Z,12.90
2023-03-13T08:01:49.502Z,19.10
2023-03-13T08:06:52.510Z,12.60
2023-03-13T08:11:56.314Z,12.60
2023-03-13T08:16:58.229Z,12.60
2023-03-13T08:22:00.045Z,9.60
2023-03-13T08:27:01.808Z,15.90
2023-03-13T08:32:03.688Z,12.20
2023-03-13T08:37:05.482Z,9.10
2023-03-13T08:42:11.277Z,10.80
2023-03-13T08:47:13.034Z,7.20
2023-03-13T08:52:18.554Z,9.60
2023-03-13T08:57:20.463Z,9.40
2023-03-13T09:02:22.282Z,9.90
2023-03-13T09:07:24.421Z,6.60
2023-03-13T09:12:31.160Z,7.70
2023-03-13T09:17:33.280Z,9.00
2023-03-13T09:22:35.132Z,8.60
2023-03-13T09:27:38.137Z,7.20
2023-03-13T09:32:39.902Z,13.30
2023-03-13T09:37:41.633Z,5.90
2023-03-13T09:42:51.435Z,5.90
2023-03-13T09:48:04.274Z,7.80
2023-03-13T09:53:15.032Z,6.80
2023-03-13T09:58:30.677Z,10.00
2023-03-13T10:03:51.533Z,7.00
2023-03-13T10:08:53.546Z,5.50
2023-03-13T10:14:18.887Z,5.40
2023-03-13T10:19:31.015Z,6.40
2023-03-13T10:24:47.444Z,9.00
2023-03-13T10:29:49.178Z,8.70
2023-03-13T10:35:01.411Z,8.30
2023-03-13T10:40:12.760Z,7.00
2023-03-13T10:45:19.970Z,6.40
2023-03-13T10:50:25.129Z,6.40
2023-03-13T10:55:27.095Z,12.20
2023-03-13T11:00:38.774Z,8.90
2023-03-13T11:05:45.389Z,6.90
2023-03-13T11:10:59.446Z,10.10
2023-03-13T11:16:28.238Z,7.10
2023-03-13T11:21:56.120Z,8.40
2023-03-13T11:27:15.238Z,11.00
2023-03-13T11:32:26.797Z,7.00
2023-03-13T11:37:33.124Z,13.00
2023-03-13T11:42:58.272Z,8.60
2023-03-13T11:48:15.196Z,7.30
2023-03-13T11:53:51.570Z,8.00
2023-03-13T11:59:04.437Z,6.60
2023-03-13T12:04:20.128Z,5.00
2023-03-13T12:09:42.221Z,7.30
2023-03-13T12:15:22.773Z,7.10
2023-03-13T12:20:27.553Z,5.90
2023-03-13T12:25:43.668Z,6.50
2023-03-13T12:30:52.476Z,10.60
2023-03-13T12:36:14.747Z,5.70
2023-03-13T12:41:27.638Z,6.00
2023-03-13T12:46:46.745Z,11.10
2023-03-13T12:51:54.937Z,7.40
2023-03-13T12:57:10.822Z,9.60
2023-03-13T13:02:20.570Z,6.00
2023-03-13T13:07:28.093Z,11.20
2023-03-13T13:13:15.274Z,7.30
2023-03-13T13:18:31.938Z,8.40
2023-03-13T13:23:39.474Z,8.80
2023-03-13T13:28:43.856Z,11.40
2023-03-13T13:33:52.732Z,7.70
2023-03-13T13:38:56.857Z,15.20
2023-03-13T13:44:25.555Z,13.50
2023-03-13T13:49:37.462Z,6.90
2023-03-13T13:54:48.046Z,13.50
2023-03-13T14:00:19.622Z,11.90
2023-03-13T14:10:40.517Z,10.20
2023-03-13T14:15:49.947Z,11.70
2023-03-13T14:21:06.008Z,8.60
2023-03-13T14:26:17.829Z,9.20
2023-03-13T14:31:24.014Z,6.20
2023-03-13T14:36:27.256Z,7.40
2023-03-13T14:41:41.647Z,9.00
2023-03-13T14:46:45.064Z,8.60
2023-03-13T14:51:58.048Z,9.40
2023-03-13T14:57:15.166Z,10.40
2023-03-13T15:02:24.375Z,9.90
2023-03-13T15:07:37.507Z,9.30
2023-03-13T15:12:46.549Z,8.80
2023-03-13T15:17:48.396Z,9.10
2023-03-13T15:22:50.172Z,9.30
2023-03-13T15:27:51.964Z,29.10
2023-03-13T15:32:53.818Z,56.60
2023-03-13T15:37:57.991Z,92.30
2023-03-13T15:42:59.985Z,19.40
2023-03-13T15:48:03.248Z,13.10
2023-03-13T15:53:33.846Z,12.50
2023-03-13T15:58:37.984Z,8.50
2023-03-13T16:03:40.673Z,13.80
2023-03-13T16:08:43.916Z,7.40
2023-03-13T16:13:46.971Z,6.50
2023-03-13T16:18:53.953Z,8.50
2023-03-13T16:23:58.845Z,10.10
2023-03-13T16:29:01.400Z,22.80
2023-03-13T16:34:03.603Z,70.10
2023-03-13T16:39:12.224Z,15.80
2023-03-13T16:44:14.035Z,17.60
2023-03-13T16:49:15.842Z,11.30
2023-03-13T16:54:20.458Z,18.80
2023-03-13T16:59:27.302Z,8.40
2023-03-13T17:04:29.395Z,10.40
2023-03-13T17:09:35.695Z,10.40
2023-03-13T17:14:37.518Z,14.20
2023-03-13T17:19:44.336Z,11.80
2023-03-13T17:24:46.196Z,20.00
2023-03-13T17:29:48.996Z,12.20
2023-03-13T17:34:53.754Z,18.30
2023-03-13T17:39:55.635Z,18.00
2023-03-13T17:44:57.397Z,19.00
2023-03-13T17:49:59.148Z,27.80
2023-03-13T17:55:00.935Z,35.90
2023-03-13T18:00:06.526Z,34.80
2023-03-13T18:05:13.963Z,24.00
2023-03-13T18:10:22.036Z,10.10
2023-03-13T18:15:25.985Z,14.20
2023-03-13T18:20:34.794Z,12.30
2023-03-13T18:25:36.495Z,11.10
2023-03-13T18:30:39.542Z,18.10
2023-03-13T18:35:41.560Z,10.60
2023-03-13T18:40:43.540Z,11.80
2023-03-13T18:45:45.332Z,24.50
2023-03-13T18:50:47.098Z,28.80
2023-03-13T18:55:48.839Z,36.30
2023-03-13T19:00:50.725Z,23.80
2023-03-13T19:05:52.746Z,14.40
2023-03-13T19:10:54.484Z,9.80
2023-03-13T19:15:56.217Z,12.30
2023-03-13T19:20:58.679Z,13.90
2023-03-13T19:26:00.494Z,13.50
2023-03-13T19:31:02.358Z,13.30
2023-03-13T19:36:06.322Z,13.30
2023-03-13T19:41:09.942Z,15.40
2023-03-13T19:46:22.750Z,10.90
2023-03-13T19:51:25.879Z,13.60
2023-03-13T19:56:29.734Z,14.60
2023-03-13T20:01:33.808Z,13.50
2023-03-13T20:06:36.873Z,11.70
2023-03-13T20:11:38.958Z,16.00
2023-03-13T20:16:40.817Z,11.60
2023-03-13T20:21:42.988Z,18.20
2023-03-13T20:26:44.736Z,19.80
2023-03-13T20:31:46.433Z,17.40
2023-03-13T20:36:48.183Z,24.30
2023-03-13T20:41:50.037Z,30.60
2023-03-13T20:46:51.838Z,20.60
2023-03-13T20:51:53.725Z,18.30
2023-03-13T20:56:55.598Z,30.80
2023-03-13T21:01:57.371Z,23.90
2023-03-13T21:07:04.544Z,20.00
2023-03-13T21:12:06.760Z,36.10
2023-03-13T21:17:10.891Z,34.00
2023-03-13T21:22:12.861Z,17.90
2023-03-13T21:27:15.457Z,23.00
2023-03-13T21:32:18.256Z,15.30
2023-03-13T21:37:20.134Z,18.00
2023-03-13T21:42:21.904Z,18.10
2023-03-13T21:47:26.334Z,46.30
2023-03-13T21:52:28.117Z,24.00
2023-03-13T21:57:29.950Z,21.00
2023-03-13T22:02:31.812Z,31.60
2023-03-13T22:07:35.253Z,23.70
2023-03-13T22:12:37.920Z,22.70
2023-03-13T22:17:41.049Z,17.60
2023-03-13T22:22:42.921Z,13.30
2023-03-13T22:27:44.745Z,13.70
2023-03-13T22:32:47.362Z,14.90
2023-03-13T22:37:52.390Z,14.90
2023-03-13T22:42:54.722Z,21.90
2023-03-13T22:47:57.863Z,17.20
2023-03-13T22:53:37.014Z,28.40
2023-03-13T22:58:40.152Z,31.90
2023-03-13T23:03:42.751Z,38.90
2023-03-13T23:08:44.877Z,22.50
2023-03-13T23:13:47.115Z,10.50
2023-03-13T23:18:49.035Z,8.00
2023-03-13T23:23:56.353Z,20.30
2023-03-13T23:28:58.168Z,10.00
2023-03-13T23:34:00.532Z,7.70
2023-03-13T23:39:02.989Z,11.40
2023-03-13T23:44:04.854Z,13.80
2023-03-13T23:49:06.706Z,20.30
2023-03-13T23:54:08.651Z,25.60
2023-03-13T23:59:10.369Z,13.40
